Time;durP1;ratioP1;P1;durP2;ratioP2;P2;SDS_P1;SDS_P2;PMS_P1;PMS_P2;Temp;Humidity;BMP_temperature;BMP_pressure;BME280_temperature;BME280_humidity;BME280_pressure;Samples;Min_cycle;Max_cycle;Signal;HPM_P1;HPM_P2
2021/09/02 00:00:12;;;;;;;11.25;6.10;;;;;;;;;;5050350;28;21487;-60
2021/09/02 00:02:38;;;;;;;13.20;6.50;;;;;;;;;;5051602;28;20033;-60
2021/09/02 00:05:04;;;;;;;10.98;6.93;;;;;;;;;;5050290;28;20032;-60
2021/09/02 00:07:29;;;;;;;13.02;6.68;;;;;;;;;;5050029;28;20370;-60
2021/09/02 00:09:55;;;;;;;10.43;6.57;;;;;;;;;;5049873;28;20117;-59
2021/09/02 00:12:20;;;;;;;10.75;6.45;;;;;;;;;;5049850;28;20052;-59
2021/09/02 00:14:45;;;;;;;11.75;6.93;;;;;;;;;;5052775;28;20183;-60
2021/09/02 00:17:11;;;;;;;13.48;6.22;;;;;;;;;;5049144;28;20116;-60
2021/09/02 00:19:37;;;;;;;14.88;7.03;;;;;;;;;;5050530;28;20087;-60
2021/09/02 00:22:03;;;;;;;10.65;6.60;;;;;;;;;;5052163;28;20064;-60
2021/09/02 00:24:29;;;;;;;11.35;6.40;;;;;;;;;;5053875;28;20028;-60
2021/09/02 00:26:54;;;;;;;11.23;6.40;;;;;;;;;;5051448;28;20025;-59
2021/09/02 00:29:20;;;;;;;13.70;6.78;;;;;;;;;;5048960;28;20029;-60
2021/09/02 00:31:45;;;;;;;12.50;6.50;;;;;;;;;;5049646;28;20032;-60
2021/09/02 00:34:11;;;;;;;12.50;6.88;;;;;;;;;;5049764;28;20113;-60
2021/09/02 00:36:36;;;;;;;11.38;6.97;;;;;;;;;;5051197;28;20399;-60
2021/09/02 00:39:03;;;;;;;11.75;6.80;;;;;;;;;;5050476;28;20055;-60
2021/09/02 00:41:28;;;;;;;12.52;6.43;;;;;;;;;;5050558;28;20083;-60
2021/09/02 00:43:53;;;;;;;12.80;7.10;;;;;;;;;;5050008;28;20029;-60
2021/09/02 00:46:19;;;;;;;13.70;6.82;;;;;;;;;;5050139;28;20027;-59
2021/09/02 00:48:46;;;;;;;13.82;7.00;;;;;;;;;;5048642;28;20111;-60
2021/09/02 00:51:14;;;;;;;11.02;7.13;;;;;;;;;;5048840;28;20032;-60
2021/09/02 00:53:40;;;;;;;14.15;6.88;;;;;;;;;;5049887;28;20037;-60
2021/09/02 00:56:05;;;;;;;13.38;7.50;;;;;;;;;;5049663;28;20591;-59
2021/09/02 00:58:31;;;;;;;10.40;6.40;;;;;;;;;;5049505;28;20037;-60
2021/09/02 01:00:57;;;;;;;15.13;7.03;;;;;;;;;;5051721;28;20032;-60
2021/09/02 01:03:23;;;;;;;12.50;7.28;;;;;;;;;;5049813;28;20048;-59
2021/09/02 01:05:51;;;;;;;12.55;7.10;;;;;;;;;;5049368;28;20479;-60
2021/09/02 01:08:18;;;;;;;11.55;7.05;;;;;;;;;;5059007;28;20392;-59
2021/09/02 01:10:46;;;;;;;14.05;6.93;;;;;;;;;;5054684;28;20032;-59
2021/09/02 01:13:11;;;;;;;12.55;6.63;;;;;;;;;;5047670;28;20429;-60
2021/09/02 01:15:37;;;;;;;11.82;7.30;;;;;;;;;;5048889;28;20037;-59
2021/09/02 01:18:02;;;;;;;13.35;7.18;;;;;;;;;;5051558;28;20476;-60
2021/09/02 01:20:30;;;;;;;11.73;7.13;;;;;;;;;;5048277;28;20028;-60
2021/09/02 01:22:58;;;;;;;14.80;7.25;;;;;;;;;;5048304;28;20078;-60
2021/09/02 01:25:26;;;;;;;10.43;6.68;;;;;;;;;;5050618;28;20112;-60
2021/09/02 01:27:58;;;;;;;13.38;7.20;;;;;;;;;;5045942;28;21054;-60
2021/09/02 01:30:24;;;;;;;11.48;6.68;;;;;;;;;;5047549;28;20071;-60
2021/09/02 01:32:51;;;;;;;11.57;6.88;;;;;;;;;;5048502;28;20075;-60
2021/09/02 01:35:17;;;;;;;9.75;6.68;;;;;;;;;;5050780;28;20029;-60
2021/09/02 01:37:43;;;;;;;12.50;7.10;;;;;;;;;;5044284;28;20152;-60
2021/09/02 01:40:13;;;;;;;11.60;6.88;;;;;;;;;;5050650;28;20099;-60
2021/09/02 01:42:39;;;;;;;15.43;6.80;;;;;;;;;;5063153;28;20025;-60
2021/09/02 01:45:05;;;;;;;10.38;6.32;;;;;;;;;;5051273;28;20020;-59
2021/09/02 01:47:30;;;;;;;12.25;6.20;;;;;;;;;;5049171;28;20024;-60
2021/09/02 01:50:08;;;;;;;13.52;6.80;;;;;;;;;;5046732;28;20032;-60
2021/09/02 01:52:33;;;;;;;12.73;7.15;;;;;;;;;;5046871;28;20059;-60
2021/09/02 01:54:59;;;;;;;12.45;6.68;;;;;;;;;;5048527;28;20477;-60
2021/09/02 01:57:24;;;;;;;12.40;7.05;;;;;;;;;;5048765;28;20167;-60
2021/09/02 01:59:49;;;;;;;11.30;6.65;;;;;;;;;;5048281;28;20052;-60
2021/09/02 02:02:15;;;;;;;12.55;6.82;;;;;;;;;;5049095;28;20035;-60
2021/09/02 02:04:40;;;;;;;12.02;6.85;;;;;;;;;;5046590;28;20028;-59
2021/09/02 02:07:06;;;;;;;13.57;7.22;;;;;;;;;;5061577;28;20054;-59
2021/09/02 02:09:31;;;;;;;12.20;6.50;;;;;;;;;;5048726;28;20158;-60
2021/09/02 02:11:56;;;;;;;12.38;7.20;;;;;;;;;;5050511;28;20115;-60
2021/09/02 02:14:22;;;;;;;11.25;7.30;;;;;;;;;;5045619;28;20475;-59
2021/09/02 02:16:47;;;;;;;13.25;7.32;;;;;;;;;;5047979;28;20116;-60
2021/09/02 02:19:13;;;;;;;10.93;7.32;;;;;;;;;;5046532;28;20025;-60
2021/09/02 02:21:38;;;;;;;11.25;7.38;;;;;;;;;;5047333;28;20059;-60
2021/09/02 02:24:04;;;;;;;12.45;6.90;;;;;;;;;;5054279;28;20459;-60
2021/09/02 02:26:30;;;;;;;11.77;7.60;;;;;;;;;;5048328;28;20031;-60
2021/09/02 02:28:55;;;;;;;13.77;7.35;;;;;;;;;;5048178;28;20036;-60
2021/09/02 02:31:21;;;;;;;12.07;7.28;;;;;;;;;;5047740;28;20029;-59
2021/09/02 02:33:46;;;;;;;13.05;7.32;;;;;;;;;;5047331;28;20391;-60
2021/09/02 02:36:11;;;;;;;13.07;7.43;;;;;;;;;;5048782;28;20028;-60
2021/09/02 02:38:37;;;;;;;13.27;7.65;;;;;;;;;;5045397;28;20111;-60
2021/09/02 02:41:02;;;;;;;12.93;6.78;;;;;;;;;;5048087;28;20025;-60
2021/09/02 02:43:28;;;;;;;11.32;7.20;;;;;;;;;;5047641;28;20086;-60
2021/09/02 02:45:53;;;;;;;12.93;7.20;;;;;;;;;;5047043;28;20029;-60
2021/09/02 02:48:19;;;;;;;11.68;7.43;;;;;;;;;;5047310;28;20051;-59
2021/09/02 02:50:45;;;;;;;12.77;7.25;;;;;;;;;;5045866;28;20041;-60
2021/09/02 02:53:11;;;;;;;12.35;7.28;;;;;;;;;;5047001;28;20105;-59
2021/09/02 02:55:36;;;;;;;15.27;7.50;;;;;;;;;;5049372;28;20109;-60
2021/09/02 02:58:02;;;;;;;12.90;7.03;;;;;;;;;;5047512;28;20075;-60
2021/09/02 03:00:27;;;;;;;12.77;7.78;;;;;;;;;;5047748;28;20543;-59
2021/09/02 03:02:52;;;;;;;14.18;7.72;;;;;;;;;;5045369;28;20475;-60
2021/09/02 03:05:18;;;;;;;14.27;7.60;;;;;;;;;;5052057;28;20017;-60
2021/09/02 03:07:43;;;;;;;11.98;7.68;;;;;;;;;;5044843;28;20067;-59
2021/09/02 03:10:09;;;;;;;12.40;7.55;;;;;;;;;;5048180;28;20127;-59
2021/09/02 03:12:35;;;;;;;14.85;8.10;;;;;;;;;;5047777;28;20040;-60
2021/09/02 03:15:02;;;;;;;17.55;10.13;;;;;;;;;;5053227;28;20522;-60
2021/09/02 03:17:28;;;;;;;15.38;9.50;;;;;;;;;;5051161;28;20159;-60
2021/09/02 03:19:53;;;;;;;16.58;9.25;;;;;;;;;;5046948;28;20155;-59
2021/09/02 03:22:19;;;;;;;17.10;9.25;;;;;;;;;;5028503;28;20175;-59
2021/09/02 03:24:44;;;;;;;12.27;7.75;;;;;;;;;;5049611;28;20056;-60
2021/09/02 03:27:10;;;;;;;17.92;7.47;;;;;;;;;;5048384;28;20139;-59
2021/09/02 03:29:35;;;;;;;12.77;7.85;;;;;;;;;;5046693;28;20032;-59
2021/09/02 03:32:01;;;;;;;16.25;8.10;;;;;;;;;;5046986;28;20028;-60
2021/09/02 03:34:26;;;;;;;11.95;7.43;;;;;;;;;;5045875;28;20024;-60
2021/09/02 03:36:52;;;;;;;13.77;7.85;;;;;;;;;;5061226;28;20068;-59
2021/09/02 03:39:18;;;;;;;14.25;7.68;;;;;;;;;;5048477;28;20399;-60
2021/09/02 03:41:43;;;;;;;15.48;7.72;;;;;;;;;;5047285;28;20546;-59
2021/09/02 03:44:09;;;;;;;14.00;7.05;;;;;;;;;;5049965;28;20025;-59
2021/09/02 03:46:35;;;;;;;14.07;7.53;;;;;;;;;;5048035;28;20021;-60
2021/09/02 03:49:01;;;;;;;12.95;6.82;;;;;;;;;;5050379;28;20036;-59
2021/09/02 03:51:26;;;;;;;14.80;7.25;;;;;;;;;;5052545;28;20029;-60
2021/09/02 03:53:51;;;;;;;12.45;6.90;;;;;;;;;;5048865;28;20021;-60
2021/09/02 03:56:17;;;;;;;11.95;7.13;;;;;;;;;;5049609;28;20400;-59
2021/09/02 03:58:42;;;;;;;13.23;7.30;;;;;;;;;;5049525;28;20049;-60
2021/09/02 04:01:08;;;;;;;14.73;8.73;;;;;;;;;;5052118;28;20100;-59
2021/09/02 04:03:33;;;;;;;17.70;8.48;;;;;;;;;;5051130;28;20028;-60
2021/09/02 04:05:59;;;;;;;13.48;7.97;;;;;;;;;;5051317;28;20040;-59
2021/09/02 04:08:24;;;;;;;11.73;7.30;;;;;;;;;;5049801;28;20017;-60
2021/09/02 04:10:50;;;;;;;17.23;7.18;;;;;;;;;;5051260;28;20063;-59
2021/09/02 04:13:16;;;;;;;13.35;7.63;;;;;;;;;;5054156;28;20092;-59
2021/09/02 04:15:42;;;;;;;13.65;6.95;;;;;;;;;;5049267;28;20487;-59
2021/09/02 04:18:07;;;;;;;14.25;8.35;;;;;;;;;;5053812;28;20033;-59
2021/09/02 04:20:33;;;;;;;15.35;7.40;;;;;;;;;;5050741;28;20096;-60
2021/09/02 04:22:58;;;;;;;16.73;8.00;;;;;;;;;;5050035;28;20029;-59
2021/09/02 04:25:23;;;;;;;13.50;7.82;;;;;;;;;;5054863;28;20064;-59
2021/09/02 04:27:49;;;;;;;16.85;7.55;;;;;;;;;;5049785;28;20034;-59
2021/09/02 04:30:15;;;;;;;11.40;6.45;;;;;;;;;;5050734;28;20475;-59
2021/09/02 04:32:41;;;;;;;13.18;7.47;;;;;;;;;;5049196;28;20116;-59
2021/09/02 04:35:08;;;;;;;15.10;7.45;;;;;;;;;;5051091;28;20450;-59
2021/09/02 04:37:38;;;;;;;14.50;7.82;;;;;;;;;;5051083;28;20456;-59
2021/09/02 04:40:04;;;;;;;11.77;7.10;;;;;;;;;;5048871;28;20087;-59
2021/09/02 04:42:30;;;;;;;12.52;6.88;;;;;;;;;;5053837;28;20036;-60
2021/09/02 04:44:56;;;;;;;12.05;7.07;;;;;;;;;;5048839;28;20033;-59
2021/09/02 04:47:22;;;;;;;11.60;6.97;;;;;;;;;;5051412;28;20077;-59
2021/09/02 04:49:47;;;;;;;11.68;6.80;;;;;;;;;;5049452;28;20033;-59
2021/09/02 04:52:13;;;;;;;11.15;6.55;;;;;;;;;;5050367;28;20537;-60
2021/09/02 04:54:38;;;;;;;13.60;6.68;;;;;;;;;;5049376;28;20036;-59
2021/09/02 04:57:04;;;;;;;12.35;7.18;;;;;;;;;;5050717;28;20216;-59
2021/09/02 04:59:29;;;;;;;12.77;7.57;;;;;;;;;;5052709;28;20144;-59
2021/09/02 05:01:55;;;;;;;12.23;7.00;;;;;;;;;;5049733;28;20036;-59
2021/09/02 05:04:20;;;;;;;11.80;6.97;;;;;;;;;;5054359;28;20064;-59
2021/09/02 05:06:45;;;;;;;17.17;6.90;;;;;;;;;;5049996;28;20085;-59
2021/09/02 05:09:11;;;;;;;11.57;6.60;;;;;;;;;;5047179;28;20075;-58
2021/09/02 05:11:36;;;;;;;14.30;6.90;;;;;;;;;;5049022;28;20033;-58
2021/09/02 05:14:02;;;;;;;13.48;7.03;;;;;;;;;;5048510;28;20090;-59
2021/09/02 05:16:27;;;;;;;12.95;7.18;;;;;;;;;;5049863;28;20040;-59
2021/09/02 05:18:53;;;;;;;11.18;6.63;;;;;;;;;;5047761;28;20024;-59
2021/09/02 05:21:18;;;;;;;11.65;6.75;;;;;;;;;;5049499;28;20386;-59
2021/09/02 05:23:43;;;;;;;10.18;6.60;;;;;;;;;;5048004;28;20017;-59
2021/09/02 05:26:09;;;;;;;14.27;6.93;;;;;;;;;;5048513;28;20419;-59
2021/09/02 05:28:34;;;;;;;14.55;6.80;;;;;;;;;;5051488;28;20059;-59
2021/09/02 05:31:00;;;;;;;12.20;6.50;;;;;;;;;;5049331;28;20318;-58
2021/09/02 05:33:25;;;;;;;13.80;7.40;;;;;;;;;;5049291;28;20051;-60
2021/09/02 05:35:51;;;;;;;15.75;7.38;;;;;;;;;;5049742;28;20033;-59
2021/09/02 05:38:16;;;;;;;12.95;7.65;;;;;;;;;;5047481;28;20123;-59
2021/09/02 05:40:42;;;;;;;12.65;7.22;;;;;;;;;;5051178;28;20086;-59
2021/09/02 05:43:07;;;;;;;17.60;7.25;;;;;;;;;;5049034;28;20047;-58
2021/09/02 05:45:33;;;;;;;13.98;7.88;;;;;;;;;;5050689;28;20559;-59
2021/09/02 05:48:01;;;;;;;15.13;7.47;;;;;;;;;;5047793;28;20024;-59
2021/09/02 05:50:27;;;;;;;12.25;7.30;;;;;;;;;;5060525;28;20037;-59
2021/09/02 05:52:52;;;;;;;13.10;7.80;;;;;;;;;;5047461;28;20021;-59
2021/09/02 05:55:18;;;;;;;13.07;7.15;;;;;;;;;;5048129;28;20376;-58
2021/09/02 05:57:43;;;;;;;15.57;8.07;;;;;;;;;;5049341;28;20119;-58
2021/09/02 06:00:09;;;;;;;15.73;8.85;;;;;;;;;;5047098;28;20098;-59
2021/09/02 06:02:35;;;;;;;16.13;8.70;;;;;;;;;;5049625;28;20044;-59
2021/09/02 06:05:00;;;;;;;14.52;8.48;;;;;;;;;;5054174;28;20036;-58
2021/09/02 06:07:26;;;;;;;16.88;8.50;;;;;;;;;;5052505;28;20033;-59
2021/09/02 06:09:51;;;;;;;14.43;7.75;;;;;;;;;;5044597;28;20021;-59
2021/09/02 06:12:16;;;;;;;14.93;8.15;;;;;;;;;;5048107;28;20024;-59
2021/09/02 06:14:42;;;;;;;16.48;8.45;;;;;;;;;;5049881;28;20480;-58
2021/09/02 06:17:07;;;;;;;17.50;9.27;;;;;;;;;;5050587;28;20464;-57
2021/09/02 06:19:33;;;;;;;15.85;9.18;;;;;;;;;;5046426;28;20557;-58
2021/09/02 06:21:58;;;;;;;17.15;9.80;;;;;;;;;;5053156;28;20391;-58
2021/09/02 06:24:24;;;;;;;16.67;8.73;;;;;;;;;;5063865;28;20020;-59
2021/09/02 06:26:49;;;;;;;17.15;8.95;;;;;;;;;;5047761;28;20099;-59
2021/09/02 06:29:15;;;;;;;17.20;9.57;;;;;;;;;;5046558;28;20045;-59
2021/09/02 06:31:41;;;;;;;14.75;10.15;;;;;;;;;;5047515;28;20036;-59
2021/09/02 06:34:06;;;;;;;19.10;10.20;;;;;;;;;;5047884;28;20043;-59
2021/09/02 06:36:32;;;;;;;19.10;10.13;;;;;;;;;;5050344;28;20111;-59
2021/09/02 06:38:57;;;;;;;20.77;10.23;;;;;;;;;;5047153;28;20476;-59
2021/09/02 06:41:22;;;;;;;17.05;9.98;;;;;;;;;;5049333;28;20033;-59
2021/09/02 06:43:48;;;;;;;16.35;8.73;;;;;;;;;;5048738;28;20047;-58
2021/09/02 06:46:13;;;;;;;16.75;9.48;;;;;;;;;;5053080;28;20032;-58
2021/09/02 06:48:38;;;;;;;20.17;10.45;;;;;;;;;;5046479;28;20025;-59
2021/09/02 06:51:04;;;;;;;21.15;11.63;;;;;;;;;;5046464;28;20017;-58
2021/09/02 06:53:30;;;;;;;23.70;12.35;;;;;;;;;;5049177;28;20037;-59
2021/09/02 06:55:55;;;;;;;19.30;11.88;;;;;;;;;;5050041;28;20094;-57
2021/09/02 06:58:21;;;;;;;20.90;12.55;;;;;;;;;;5049101;28;20117;-58
2021/09/02 07:00:46;;;;;;;22.90;12.75;;;;;;;;;;5047431;28;20459;-59
2021/09/02 07:03:11;;;;;;;22.27;11.68;;;;;;;;;;5046494;28;20024;-58
2021/09/02 07:05:37;;;;;;;23.77;12.55;;;;;;;;;;5048733;28;20442;-59
2021/09/02 07:08:02;;;;;;;18.02;11.30;;;;;;;;;;5048800;28;20024;-59
2021/09/02 07:10:28;;;;;;;21.63;12.18;;;;;;;;;;5047781;28;20044;-59
2021/09/02 07:12:53;;;;;;;19.17;11.18;;;;;;;;;;5047562;28;20478;-58
2021/09/02 07:15:19;;;;;;;18.70;10.93;;;;;;;;;;5049825;28;20089;-58
2021/09/02 07:17:44;;;;;;;18.80;11.65;;;;;;;;;;5045122;28;20032;-58
2021/09/02 07:20:10;;;;;;;20.17;11.10;;;;;;;;;;5047065;28;20077;-58
2021/09/02 07:22:36;;;;;;;20.00;11.30;;;;;;;;;;5054910;28;20029;-58
2021/09/02 07:25:01;;;;;;;23.33;11.82;;;;;;;;;;5053196;28;20498;-57
2021/09/02 07:27:27;;;;;;;24.45;12.50;;;;;;;;;;5052177;28;20479;-58
2021/09/02 07:29:52;;;;;;;21.77;11.85;;;;;;;;;;5049521;28;20048;-57
2021/09/02 07:32:18;;;;;;;17.42;10.80;;;;;;;;;;5051329;28;20029;-58
2021/09/02 07:34:43;;;;;;;20.60;11.30;;;;;;;;;;5053399;28;20104;-59
2021/09/02 07:37:09;;;;;;;14.88;10.18;;;;;;;;;;5051025;28;20635;-58
2021/09/02 07:39:37;;;;;;;16.73;10.20;;;;;;;;;;5054299;28;20032;-59
2021/09/02 07:42:03;;;;;;;18.25;10.80;;;;;;;;;;5051759;28;20028;-59
2021/09/02 07:44:28;;;;;;;17.98;10.73;;;;;;;;;;5050323;28;20317;-59
2021/09/02 07:46:54;;;;;;;17.05;10.38;;;;;;;;;;5053843;28;20070;-58
2021/09/02 07:49:19;;;;;;;16.80;10.15;;;;;;;;;;5053480;28;20035;-59
2021/09/02 07:51:45;;;;;;;18.90;11.00;;;;;;;;;;5049273;28;20275;-59
2021/09/02 07:54:10;;;;;;;16.85;10.35;;;;;;;;;;5051915;28;20497;-59
2021/09/02 07:56:36;;;;;;;19.80;10.27;;;;;;;;;;5051920;28;20484;-59
2021/09/02 07:59:04;;;;;;;20.58;10.93;;;;;;;;;;5052427;28;20028;-59
2021/09/02 08:01:29;;;;;;;17.98;10.27;;;;;;;;;;5051703;28;20024;-59
2021/09/02 08:03:55;;;;;;;17.60;10.88;;;;;;;;;;5049185;28;20029;-59
2021/09/02 08:06:20;;;;;;;20.83;11.55;;;;;;;;;;5050700;28;20032;-58
2021/09/02 08:08:46;;;;;;;19.63;11.65;;;;;;;;;;5055402;28;20095;-58
2021/09/02 08:11:11;;;;;;;18.75;11.23;;;;;;;;;;5048349;28;20040;-58
2021/09/02 08:13:37;;;;;;;18.17;10.50;;;;;;;;;;5050301;28;20025;-59
2021/09/02 08:16:02;;;;;;;17.50;10.55;;;;;;;;;;5051458;28;20286;-59
2021/09/02 08:18:28;;;;;;;18.95;11.00;;;;;;;;;;5048466;28;20068;-59
2021/09/02 08:20:53;;;;;;;18.70;11.05;;;;;;;;;;5051847;28;20501;-58
2021/09/02 08:23:19;;;;;;;19.77;10.10;;;;;;;;;;5048819;28;20564;-58
2021/09/02 08:25:44;;;;;;;19.20;11.38;;;;;;;;;;5050426;28;20024;-59
2021/09/02 08:28:10;;;;;;;19.33;10.48;;;;;;;;;;5049091;28;20021;-58
2021/09/02 08:30:35;;;;;;;18.98;10.73;;;;;;;;;;5051184;28;20031;-58
2021/09/02 08:33:01;;;;;;;20.13;11.02;;;;;;;;;;5048826;28;20044;-58
2021/09/02 08:35:31;;;;;;;15.70;10.63;;;;;;;;;;5050656;28;20053;-60
2021/09/02 08:38:02;;;;;;;18.20;10.85;;;;;;;;;;5048293;28;20067;-59
2021/09/02 08:40:31;;;;;;;19.38;11.23;;;;;;;;;;5052681;28;20419;-60
2021/09/02 08:42:57;;;;;;;21.00;10.80;;;;;;;;;;5050868;28;20115;-59
2021/09/02 08:45:25;;;;;;;16.38;10.32;;;;;;;;;;5048644;28;20032;-58
2021/09/02 08:47:51;;;;;;;17.85;10.90;;;;;;;;;;5047439;28;20025;-58
2021/09/02 08:50:20;;;;;;;19.45;11.07;;;;;;;;;;5051021;28;20553;-58
2021/09/02 08:52:46;;;;;;;18.08;10.32;;;;;;;;;;5050802;28;20032;-59
2021/09/02 08:55:12;;;;;;;18.67;10.50;;;;;;;;;;5049642;28;20036;-59
2021/09/02 08:57:37;;;;;;;17.35;10.60;;;;;;;;;;5049101;28;20446;-59
2021/09/02 09:00:04;;;;;;;16.48;10.20;;;;;;;;;;5052102;28;20060;-59
2021/09/02 09:02:31;;;;;;;17.50;10.45;;;;;;;;;;5047878;28;20105;-59
2021/09/02 09:05:02;;;;;;;15.65;10.15;;;;;;;;;;5068653;28;20033;-59
2021/09/02 09:07:48;;;;;;;19.45;10.80;;;;;;;;;;5048115;28;20070;-59
2021/09/02 09:10:13;;;;;;;17.92;10.15;;;;;;;;;;5049746;28;20045;-59
2021/09/02 09:12:41;;;;;;;18.63;9.60;;;;;;;;;;5049243;28;20087;-58
2021/09/02 09:15:09;;;;;;;18.70;9.85;;;;;;;;;;5048438;28;20044;-58
2021/09/02 09:17:35;;;;;;;17.98;9.80;;;;;;;;;;5052038;28;20103;-59
2021/09/02 09:20:05;;;;;;;18.02;10.32;;;;;;;;;;5049694;28;20463;-58
2021/09/02 09:22:30;;;;;;;;;;;;;;;;;;5047500;28;20032;-59
2021/09/02 09:24:58;;;;;;;16.75;9.68;;;;;;;;;;5048856;28;20441;-58
2021/09/02 09:27:45;;;;;;;15.80;9.02;;;;;;;;;;5046720;28;20017;-58
2021/09/02 09:30:11;;;;;;;17.90;9.07;;;;;;;;;;5046055;28;20025;-59
2021/09/02 09:32:42;;;;;;;15.45;8.30;;;;;;;;;;5048496;28;20411;-59
2021/09/02 09:35:14;;;;;;;14.65;8.70;;;;;;;;;;5049948;28;20029;-59
2021/09/02 09:37:40;;;;;;;14.52;8.85;;;;;;;;;;5051657;28;20028;-59
2021/09/02 09:40:09;;;;;;;10.30;6.53;;;;;;;;;;5048912;28;20025;-59
2021/09/02 09:42:35;;;;;;;;;;;;;;;;;;5048989;28;20032;-59
2021/09/02 09:45:00;;;;;;;12.35;6.80;;;;;;;;;;5051523;28;19932;-58
2021/09/02 09:47:27;;;;;;;10.27;6.28;;;;;;;;;;5049359;28;20122;-59
2021/09/02 09:49:58;;;;;;;10.35;5.72;;;;;;;;;;5064678;28;20045;-58
2021/09/02 09:52:52;;;;;;;10.25;6.43;;;;;;;;;;5045932;28;20017;-59
2021/09/02 09:55:18;;;;;;;10.82;6.40;;;;;;;;;;5049384;28;20036;-59
2021/09/02 09:57:46;;;;;;;10.13;6.35;;;;;;;;;;5048243;28;20104;-59
2021/09/02 10:00:16;;;;;;;10.05;6.35;;;;;;;;;;5049198;28;20032;-59
2021/09/02 10:02:44;;;;;;;10.73;6.13;;;;;;;;;;5050367;28;20123;-59
2021/09/02 10:05:12;;;;;;;11.30;6.85;;;;;;;;;;5049117;28;20079;-58
2021/09/02 10:07:41;;;;;;;11.35;6.53;;;;;;;;;;5045356;28;20499;-59
2021/09/02 10:10:09;;;;;;;11.25;7.40;;;;;;;;;;5048740;28;20039;-59
2021/09/02 10:12:36;;;;;;;10.48;6.32;;;;;;;;;;5047695;28;20043;-59
2021/09/02 10:15:07;;;;;;;12.07;6.30;;;;;;;;;;5046158;28;20040;-59
2021/09/02 10:17:33;;;;;;;10.93;6.32;;;;;;;;;;5048320;28;20025;-59
2021/09/02 10:20:08;;;;;;;10.45;6.38;;;;;;;;;;5048464;28;20033;-59
2021/09/02 10:22:34;;;;;;;10.40;6.95;;;;;;;;;;5048019;28;20093;-59
2021/09/02 10:25:00;;;;;;;11.90;6.32;;;;;;;;;;5047190;28;20149;-59
2021/09/02 10:27:26;;;;;;;8.68;6.18;;;;;;;;;;5062988;28;20025;-60
2021/09/02 10:29:53;;;;;;;9.55;5.72;;;;;;;;;;5046760;28;20039;-59
2021/09/02 10:32:27;;;;;;;11.43;5.93;;;;;;;;;;5045707;28;20054;-60
2021/09/02 10:34:55;;;;;;;8.23;5.53;;;;;;;;;;5048873;28;20056;-59
2021/09/02 10:37:40;;;;;;;9.00;5.43;;;;;;;;;;5047404;28;20024;-60
2021/09/02 10:40:27;;;;;;;10.90;5.95;;;;;;;;;;5046935;28;20116;-59
2021/09/02 10:42:57;;;;;;;8.73;5.75;;;;;;;;;;5048513;28;20044;-59
2021/09/02 10:45:26;;;;;;;8.70;5.80;;;;;;;;;;5047281;28;20051;-59
2021/09/02 10:47:51;;;;;;;7.97;5.30;;;;;;;;;;5048921;28;20108;-59
2021/09/02 10:50:23;;;;;;;8.13;5.72;;;;;;;;;;5050422;28;20467;-59
2021/09/02 10:52:49;;;;;;;9.05;5.90;;;;;;;;;;5047280;28;20029;-59
2021/09/02 10:55:36;;;;;;;9.73;5.68;;;;;;;;;;5048183;28;20094;-59
2021/09/02 10:58:02;;;;;;;8.50;5.57;;;;;;;;;;5049893;28;20029;-60
2021/09/02 11:00:42;;;;;;;11.43;5.32;;;;;;;;;;5047584;28;20040;-60
2021/09/02 11:03:18;;;;;;;10.77;5.85;;;;;;;;;;5045605;28;20422;-60
2021/09/02 11:05:51;;;;;;;9.57;5.38;;;;;;;;;;5046538;28;20128;-60
2021/09/02 11:08:34;;;;;;;7.82;5.72;;;;;;;;;;5045975;28;20017;-60
2021/09/02 11:11:21;;;;;;;10.73;5.43;;;;;;;;;;5052307;28;20020;-60
2021/09/02 11:13:48;;;;;;;10.80;5.80;;;;;;;;;;5045787;28;20204;-60
2021/09/02 11:16:22;;;;;;;7.57;5.35;;;;;;;;;;5048801;28;20047;-60
2021/09/02 11:18:50;;;;;;;9.27;5.47;;;;;;;;;;5046833;28;20029;-59
2021/09/02 11:21:27;;;;;;;8.50;5.33;;;;;;;;;;5050011;28;20040;-59
2021/09/02 11:24:02;;;;;;;8.52;5.72;;;;;;;;;;5047670;28;20345;-60
2021/09/02 11:26:37;;;;;;;7.38;5.03;;;;;;;;;;5046825;28;20094;-60
2021/09/02 11:29:04;;;;;;;7.97;5.70;;;;;;;;;;5042203;28;20036;-60
2021/09/02 11:31:31;;;;;;;7.88;5.40;;;;;;;;;;5047800;28;20054;-60
2021/09/02 11:33:57;;;;;;;7.78;5.25;;;;;;;;;;5045319;28;20393;-59
2021/09/02 11:36:23;;;;;;;8.68;6.18;;;;;;;;;;5047436;28;20104;-59
2021/09/02 11:38:50;;;;;;;8.27;5.57;;;;;;;;;;5046281;28;20029;-59
2021/09/02 11:41:21;;;;;;;6.13;4.90;;;;;;;;;;5050814;28;20098;-60
2021/09/02 11:43:47;;;;;;;8.65;5.22;;;;;;;;;;5046069;28;20086;-60
2021/09/02 11:46:13;;;;;;;7.28;5.13;;;;;;;;;;5047897;28;20052;-60
2021/09/02 11:48:53;;;;;;;9.95;5.47;;;;;;;;;;5049465;28;20056;-60
2021/09/02 11:51:32;;;;;;;10.70;6.07;;;;;;;;;;5047056;28;20029;-60
2021/09/02 11:54:09;;;;;;;9.10;5.38;;;;;;;;;;5045129;28;20115;-60
2021/09/02 11:56:36;;;;;;;8.35;5.63;;;;;;;;;;5046876;28;20044;-60
2021/09/02 11:59:03;;;;;;;8.95;5.55;;;;;;;;;;5044968;28;20032;-60
2021/09/02 12:01:29;;;;;;;11.32;5.63;;;;;;;;;;5049198;28;20499;-60
2021/09/02 12:03:55;;;;;;;9.65;6.38;;;;;;;;;;5045507;28;20032;-60
2021/09/02 12:06:24;;;;;;;9.90;5.63;;;;;;;;;;5061204;28;20029;-60
2021/09/02 12:08:50;;;;;;;;;;;;;;;;;;5053739;28;20099;-61
2021/09/02 12:11:21;;;;;;;8.85;5.65;;;;;;;;;;5051939;28;20063;-60
2021/09/02 12:13:47;;;;;;;9.02;5.78;;;;;;;;;;5051119;28;20105;-60
2021/09/02 12:16:16;;;;;;;9.48;6.45;;;;;;;;;;5050073;28;20537;-59
2021/09/02 12:18:43;;;;;;;;;;;;;;;;;;5048045;28;20526;-60
2021/09/02 12:21:21;;;;;;;10.10;5.97;;;;;;;;;;5052514;28;19920;-60
2021/09/02 12:23:47;;;;;;;;;;;;;;;;;;5050184;28;20388;-60
2021/09/02 12:26:12;;;;;;;8.82;6.07;;;;;;;;;;5052063;28;19912;-61
2021/09/02 12:28:44;;;;;;;10.23;6.50;;;;;;;;;;5048987;28;20020;-60
2021/09/02 12:31:32;;;;;;;9.07;6.38;;;;;;;;;;5052439;28;20088;-60
2021/09/02 12:34:08;;;;;;;10.60;6.68;;;;;;;;;;5048231;28;20025;-60
2021/09/02 12:36:43;;;;;;;9.70;6.50;;;;;;;;;;5046807;28;20376;-60
2021/09/02 12:39:17;;;;;;;7.53;5.82;;;;;;;;;;5050183;28;20104;-60
2021/09/02 12:41:48;;;;;;;8.75;6.03;;;;;;;;;;5049333;28;20032;-61
2021/09/02 12:44:29;;;;;;;8.65;6.10;;;;;;;;;;5048769;28;20029;-60
2021/09/02 12:47:14;;;;;;;10.82;6.20;;;;;;;;;;5049906;28;20059;-60
2021/09/02 12:49:43;;;;;;;10.68;6.95;;;;;;;;;;5048234;28;20040;-60
2021/09/02 12:52:15;;;;;;;9.35;6.43;;;;;;;;;;5049091;28;20388;-61
2021/09/02 12:55:00;;;;;;;10.88;6.38;;;;;;;;;;5050559;28;20566;-61
2021/09/02 12:57:26;;;;;;;12.73;5.90;;;;;;;;;;5047397;28;20041;-61
2021/09/02 12:59:52;;;;;;;9.02;6.78;;;;;;;;;;5050588;28;20387;-61
2021/09/02 13:02:18;;;;;;;9.85;6.65;;;;;;;;;;5049024;28;20029;-61
2021/09/02 13:04:44;;;;;;;9.52;6.28;;;;;;;;;;5050143;28;20033;-61
2021/09/02 13:07:09;;;;;;;8.82;6.63;;;;;;;;;;5048138;28;20029;-61
2021/09/02 13:09:35;;;;;;;9.88;6.35;;;;;;;;;;5050312;28;20116;-61
2021/09/02 13:12:00;;;;;;;9.85;6.30;;;;;;;;;;5048580;28;20036;-60
2021/09/02 13:14:26;;;;;;;10.82;6.15;;;;;;;;;;5051121;28;20244;-61
2021/09/02 13:16:51;;;;;;;10.27;6.95;;;;;;;;;;5047894;28;20028;-60
2021/09/02 13:19:17;;;;;;;12.88;6.72;;;;;;;;;;5045592;28;20040;-60
2021/09/02 13:21:43;;;;;;;8.23;5.80;;;;;;;;;;5048835;28;20036;-60
2021/09/02 13:24:08;;;;;;;9.27;6.22;;;;;;;;;;5048502;28;20376;-60
2021/09/02 13:26:33;;;;;;;9.52;5.78;;;;;;;;;;5048283;28;20388;-60
2021/09/02 13:28:59;;;;;;;9.57;5.95;;;;;;;;;;5048545;28;20029;-60
2021/09/02 13:31:24;;;;;;;12.45;6.05;;;;;;;;;;5049632;28;20035;-60
2021/09/02 13:33:49;;;;;;;9.73;6.18;;;;;;;;;;5048191;28;20029;-60
2021/09/02 13:36:15;;;;;;;9.73;6.78;;;;;;;;;;5048041;28;20108;-60
2021/09/02 13:38:40;;;;;;;8.45;6.05;;;;;;;;;;5048033;28;20029;-60
2021/09/02 13:41:06;;;;;;;11.50;6.68;;;;;;;;;;5050752;28;20040;-60
2021/09/02 13:43:32;;;;;;;9.30;6.15;;;;;;;;;;5048191;28;20519;-61
2021/09/02 13:45:58;;;;;;;8.00;6.03;;;;;;;;;;5051933;28;20626;-60
2021/09/02 13:48:24;;;;;;;7.30;5.90;;;;;;;;;;5048624;28;20467;-62
2021/09/02 13:50:49;;;;;;;9.10;6.28;;;;;;;;;;5050138;28;20029;-61
2021/09/02 13:53:15;;;;;;;9.48;6.05;;;;;;;;;;5049221;28;20028;-61
2021/09/02 13:55:40;;;;;;;8.55;6.15;;;;;;;;;;5052620;28;20483;-61
2021/09/02 13:58:06;;;;;;;10.30;6.03;;;;;;;;;;5047554;28;20021;-60
2021/09/02 14:00:31;;;;;;;8.70;6.15;;;;;;;;;;5046078;28;20028;-61
2021/09/02 14:02:57;;;;;;;8.38;6.15;;;;;;;;;;5045526;28;20039;-60
2021/09/02 14:05:22;;;;;;;9.43;6.13;;;;;;;;;;5054944;28;20161;-60
2021/09/02 14:07:47;;;;;;;8.60;6.22;;;;;;;;;;5046263;28;20091;-62
2021/09/02 14:10:13;;;;;;;9.02;6.25;;;;;;;;;;5048400;28;20042;-61
2021/09/02 14:12:39;;;;;;;9.93;6.05;;;;;;;;;;5048494;28;20106;-61
2021/09/02 14:15:05;;;;;;;9.73;6.03;;;;;;;;;;5049875;28;20159;-61
2021/09/02 14:17:31;;;;;;;11.20;5.95;;;;;;;;;;5048089;28;20037;-61
2021/09/02 14:19:57;;;;;;;7.43;5.72;;;;;;;;;;5047507;28;20151;-61
2021/09/02 14:22:25;;;;;;;9.68;6.35;;;;;;;;;;5048182;28;20508;-61
2021/09/02 14:24:50;;;;;;;9.87;6.73;;;;;;;;;;5048521;28;20028;-61
2021/09/02 14:27:16;;;;;;;7.43;5.75;;;;;;;;;;5049463;28;20757;-61
2021/09/02 14:29:42;;;;;;;11.32;6.47;;;;;;;;;;5047605;28;20025;-61